Terminal Aerodrome Forecast
Issued by NWS

Home | Current Version | Previous Version | Text Only | Print | Product List | Glossary On
Versions: 1 2 3 4 5 6 7 8 9 10 11 12 13 14 15 16 17 18
000
FTUS46 KPDT 270520
TAFPSC
TAF
KPSC 270520Z 2706/2806 32003KT P6SM VCSH SCT050 BKN120
     FM271500 21004KT P6SM SCT050 SCT100
     FM271800 29006KT P6SM VCSH SCT070 SCT100=

USA.gov is the U.S. government's official web portal to all federal, state and local government web resources and services.